Time;durP1;ratioP1;P1;durP2;ratioP2;P2;SDS_P1;SDS_P2;PMS_P1;PMS_P2;Temp;Humidity;BMP_temperature;BMP_pressure;BME280_temperature;BME280_humidity;BME280_pressure;Samples;Min_cycle;Max_cycle;Signal;HPM_P1;HPM_P2
2021/06/03 00:00:34;;;;;;;6.10;2.90;;;;;;;12.90;41.92;100657.13;4971337;28;20042;-45
2021/06/03 00:03:00;;;;;;;8.13;2.90;;;;;;;12.92;41.89;100654.31;4970641;28;20108;-47
2021/06/03 00:05:29;;;;;;;11.07;3.10;;;;;;;12.82;42.21;100661.38;4970193;28;20438;-46
2021/06/03 00:07:56;;;;;;;7.10;3.22;;;;;;;12.83;42.07;100663.94;4974723;28;20058;-47
2021/06/03 00:10:28;;;;;;;7.82;2.92;;;;;;;12.89;42.22;100681.41;4974831;28;20042;-49
2021/06/03 00:12:54;;;;;;;8.52;3.10;;;;;;;12.79;42.03;100670.53;4974585;28;20486;-45
2021/06/03 00:15:20;;;;;;;6.78;3.13;;;;;;;12.66;42.75;100664.34;4973739;28;20030;-47
2021/06/03 00:17:46;;;;;;;7.72;3.08;;;;;;;12.60;42.92;100665.69;4969682;28;20086;-47
2021/06/03 00:20:15;;;;;;;3.97;2.88;;;;;;;12.53;43.42;100670.69;4972444;28;20430;-48
2021/06/03 00:22:40;;;;;;;8.55;2.97;;;;;;;12.04;43.10;100600.03;4971821;28;20096;-47
2021/06/03 00:25:07;;;;;;;10.27;2.90;;;;;;;12.60;42.94;100673.75;4971658;28;20046;-45
2021/06/03 00:27:34;;;;;;;6.90;3.42;;;;;;;12.52;43.01;100662.72;4970466;28;20050;-49
2021/06/03 00:29:59;;;;;;;13.73;3.20;;;;;;;12.40;43.35;100664.50;4972516;28;20062;-49
2021/06/03 00:32:25;;;;;;;5.95;3.28;;;;;;;12.26;43.11;100620.75;4971926;28;20525;-47
2021/06/03 00:34:50;;;;;;;9.90;3.53;;;;;;;12.48;43.23;100664.81;4971721;28;20046;-46
2021/06/03 00:37:16;;;;;;;7.78;3.10;;;;;;;12.47;43.03;100663.09;4974140;28;20030;-46
2021/06/03 00:39:41;;;;;;;9.55;3.42;;;;;;;12.57;42.56;100656.03;4974392;28;20039;-48
2021/06/03 00:42:07;;;;;;;6.50;2.88;;;;;;;12.53;42.98;100665.31;4973355;28;20039;-50
2021/06/03 00:44:32;;;;;;;5.30;2.70;;;;;;;12.42;43.45;100674.16;4973093;28;20125;-49
2021/06/03 00:46:58;;;;;;;6.97;3.00;;;;;;;12.37;43.47;100660.22;4972832;28;20065;-44
2021/06/03 00:49:23;;;;;;;6.28;3.10;;;;;;;12.33;43.38;100664.97;4988884;28;20105;-48
2021/06/03 00:51:49;;;;;;;4.38;2.67;;;;;;;12.28;43.70;100660.91;4973717;28;20047;-46
2021/06/03 00:54:15;;;;;;;9.70;3.40;;;;;;;12.35;43.76;100652.28;4972915;28;20038;-47
2021/06/03 00:56:41;;;;;;;6.85;3.78;;;;;;;12.31;43.32;100649.97;4973610;28;20035;-48
2021/06/03 00:59:06;;;;;;;10.38;3.30;;;;;;;12.25;43.51;100628.91;4973900;28;20520;-48
2021/06/03 01:01:32;;;;;;;9.00;3.05;;;;;;;12.20;43.73;100630.13;5004914;28;20035;-48
2021/06/03 01:04:01;;;;;;;7.43;3.50;;;;;;;12.26;43.80;100649.44;4973532;28;20030;-46
2021/06/03 01:06:27;;;;;;;7.65;3.10;;;;;;;12.27;43.86;100652.00;4973984;28;20030;-43
2021/06/03 01:09:12;;;;;;;10.15;3.28;;;;;;;12.31;44.06;100650.81;4973403;28;20046;-45
2021/06/03 01:11:50;;;;;;;8.52;3.15;;;;;;;12.28;44.28;100652.84;4973254;28;20162;-44
2021/06/03 01:14:26;;;;;;;6.65;3.10;;;;;;;12.28;44.32;100656.41;4972631;28;20104;-44
2021/06/03 01:16:52;;;;;;;;;;;;;;;12.39;43.12;100663.66;4968125;28;20034;-45
2021/06/03 01:19:39;;;;;;;8.95;3.28;;;;;;;12.18;43.54;100644.66;4969570;28;19918;-46
2021/06/03 01:22:18;;;;;;;4.97;3.00;;;;;;;12.36;43.84;100661.22;4971093;28;20031;-47
2021/06/03 01:24:49;;;;;;;7.10;3.20;;;;;;;12.33;43.74;100666.81;4970024;28;20031;-49
2021/06/03 01:27:18;;;;;;;8.93;3.08;;;;;;;12.23;44.21;100666.63;4971030;28;20042;-45
2021/06/03 01:29:54;;;;;;;15.00;3.58;;;;;;;12.22;44.25;100674.78;4970247;28;20129;-50
2021/06/03 01:32:20;;;;;;;8.80;3.05;;;;;;;12.23;43.96;100673.81;4971074;28;20042;-47
2021/06/03 01:34:48;;;;;;;8.43;3.95;;;;;;;12.08;44.35;100657.91;4985961;28;20035;-43
2021/06/03 01:37:14;;;;;;;10.00;3.80;;;;;;;12.12;44.38;100655.81;4971764;28;20137;-45
2021/06/03 01:39:42;;;;;;;6.50;3.10;;;;;;;12.03;44.33;100650.19;4971318;28;20249;-48
2021/06/03 01:42:08;;;;;;;6.70;3.50;;;;;;;12.13;44.17;100670.97;4972819;28;20043;-47
2021/06/03 01:44:34;;;;;;;8.75;3.58;;;;;;;12.13;44.20;100666.47;4972619;28;20037;-53
2021/06/03 01:47:01;;;;;;;7.93;3.22;;;;;;;12.14;44.34;100661.94;4972185;28;20046;-49
2021/06/03 01:49:27;;;;;;;13.43;3.17;;;;;;;12.06;44.22;100651.78;4972972;28;20168;-47
2021/06/03 01:52:00;;;;;;;7.95;3.10;;;;;;;12.11;43.88;100646.06;4972197;28;20138;-48
2021/06/03 01:54:26;;;;;;;9.35;3.50;;;;;;;11.94;43.77;100609.72;4972732;28;20078;-46
2021/06/03 01:56:52;;;;;;;9.27;3.30;;;;;;;12.32;43.61;100673.16;4972136;28;20039;-49
2021/06/03 01:59:17;;;;;;;5.32;2.65;;;;;;;12.20;44.02;100665.03;4972092;28;20038;-48
2021/06/03 02:01:43;;;;;;;6.53;3.17;;;;;;;12.20;43.76;100675.75;4972276;28;20469;-47
2021/06/03 02:04:10;;;;;;;6.82;2.80;;;;;;;12.10;43.57;100645.22;4970987;28;20034;-51
2021/06/03 02:06:36;;;;;;;8.77;2.63;;;;;;;12.29;43.80;100673.34;4972422;28;20039;-48
2021/06/03 02:09:04;;;;;;;5.35;2.50;;;;;;;12.33;43.84;100696.34;4972381;28;20704;-48
2021/06/03 02:11:29;;;;;;;6.88;2.67;;;;;;;12.40;43.50;100680.63;4972157;28;20034;-43
2021/06/03 02:13:58;;;;;;;5.43;2.70;;;;;;;12.50;43.42;100665.53;4972310;28;20402;-44
2021/06/03 02:16:32;;;;;;;6.57;2.47;;;;;;;12.75;42.80;100685.16;4971988;28;20126;-46
2021/06/03 02:19:05;;;;;;;5.18;2.67;;;;;;;12.96;42.45;100685.34;4967628;28;20035;-50
2021/06/03 02:21:34;;;;;;;4.20;2.60;;;;;;;13.18;41.91;100670.22;4970278;28;20073;-48
2021/06/03 02:24:00;;;;;;;7.50;2.35;;;;;;;13.40;41.16;100664.03;4969846;28;20438;-46
2021/06/03 02:26:26;;;;;;;4.90;2.35;;;;;;;13.60;40.43;100667.84;4969355;28;21003;-47
2021/06/03 02:28:53;;;;;;;5.18;2.20;;;;;;;14.02;39.00;100672.56;4969440;28;20092;-48
2021/06/03 02:31:19;;;;;;;4.55;2.45;;;;;;;14.34;38.65;100679.81;4969259;28;20046;-48
2021/06/03 02:33:46;;;;;;;4.07;2.17;;;;;;;14.40;38.54;100639.91;4967773;28;20031;-50
2021/06/03 02:36:12;;;;;;;6.57;2.90;;;;;;;14.91;37.68;100676.94;4968970;28;20050;-48
2021/06/03 02:38:40;;;;;;;5.07;2.70;;;;;;;15.19;37.05;100673.66;4969519;28;20046;-46
2021/06/03 02:41:07;;;;;;;5.68;2.70;;;;;;;15.17;36.98;100676.53;4970071;28;20089;-49
2021/06/03 02:43:34;;;;;;;5.97;2.42;;;;;;;15.15;36.79;100673.09;4970174;28;20030;-44
2021/06/03 02:46:00;;;;;;;8.02;2.83;;;;;;;15.20;36.41;100670.03;4969359;28;20079;-50
2021/06/03 02:48:26;;;;;;;3.42;2.28;;;;;;;15.06;36.57;100668.47;4969070;28;20544;-46
2021/06/03 02:50:52;;;;;;;4.07;2.28;;;;;;;14.96;36.78;100667.59;4966547;28;20070;-49
2021/06/03 02:53:18;;;;;;;5.10;2.58;;;;;;;14.86;36.84;100672.91;4969756;28;20039;-46
2021/06/03 02:55:44;;;;;;;3.95;2.20;;;;;;;14.74;36.79;100675.69;4969875;28;20043;-45
2021/06/03 02:58:10;;;;;;;13.10;2.65;;;;;;;14.73;36.87;100676.66;4968736;28;20062;-49
2021/06/03 03:00:36;;;;;;;6.40;2.03;;;;;;;14.88;36.55;100665.53;4969004;28;20132;-50
2021/06/03 03:03:06;;;;;;;7.00;2.50;;;;;;;15.05;36.03;100627.19;4969475;28;20490;-48
2021/06/03 03:05:32;;;;;;;3.95;2.30;;;;;;;15.63;35.10;100650.03;4966642;28;20582;-49
2021/06/03 03:07:58;;;;;;;8.00;2.30;;;;;;;16.15;34.17;100651.75;4968382;28;20121;-44
2021/06/03 03:10:27;;;;;;;5.57;2.15;;;;;;;16.74;33.07;100657.16;4969096;28;20113;-48
2021/06/03 03:12:53;;;;;;;6.55;2.40;;;;;;;17.11;32.15;100622.25;4969321;28;20442;-48
2021/06/03 03:15:19;;;;;;;2.95;2.00;;;;;;;17.55;31.09;100646.88;4969253;28;20042;-44
2021/06/03 03:17:46;;;;;;;8.30;2.30;;;;;;;17.84;30.54;100635.03;4968230;28;20101;-50
2021/06/03 03:20:14;;;;;;;6.25;2.10;;;;;;;18.22;30.07;100643.94;4968843;28;20115;-51
2021/06/03 03:22:40;;;;;;;7.25;2.38;;;;;;;18.60;29.66;100640.22;4966247;28;20042;-47
2021/06/03 03:25:09;;;;;;;6.57;2.22;;;;;;;19.04;28.93;100642.94;4967209;28;20077;-46
2021/06/03 03:27:35;;;;;;;6.55;2.42;;;;;;;19.38;28.58;100644.00;4967262;28;20031;-49
2021/06/03 03:30:03;;;;;;;5.43;2.58;;;;;;;19.60;28.03;100634.44;4968522;28;20178;-51
2021/06/03 03:32:29;;;;;;;10.25;2.45;;;;;;;19.90;27.72;100632.16;4969213;28;20051;-48
2021/06/03 03:34:54;;;;;;;6.22;2.22;;;;;;;20.08;27.07;100623.91;4969417;28;20030;-52
2021/06/03 03:37:20;;;;;;;6.93;2.60;;;;;;;20.55;26.51;100629.72;4969301;28;20054;-49
2021/06/03 03:39:45;;;;;;;5.32;2.08;;;;;;;20.99;25.48;100636.72;4970396;28;20592;-50
2021/06/03 03:42:11;;;;;;;4.45;2.20;;;;;;;21.34;25.22;100625.56;4970424;28;20090;-48
2021/06/03 03:44:36;;;;;;;5.70;2.50;;;;;;;21.51;24.88;100601.84;4971720;28;20050;-51
2021/06/03 03:47:02;;;;;;;4.32;2.33;;;;;;;21.94;24.27;100626.03;4970432;28;20074;-50
2021/06/03 03:49:28;;;;;;;6.97;2.60;;;;;;;22.39;23.89;100631.69;4971071;28;20997;-49
2021/06/03 03:51:53;;;;;;;6.47;2.47;;;;;;;23.07;23.09;100633.69;4970906;28;20462;-50
2021/06/03 03:54:19;;;;;;;10.18;2.40;;;;;;;23.67;22.55;100635.59;4969329;28;20062;-48
2021/06/03 03:56:44;;;;;;;3.83;2.20;;;;;;;24.05;21.45;100592.53;4970834;28;20138;-46
2021/06/03 03:59:10;;;;;;;9.10;2.80;;;;;;;24.63;20.83;100620.88;4970814;28;20049;-50
2021/06/03 04:01:36;;;;;;;6.28;2.22;;;;;;;24.84;20.50;100589.00;4970131;28;20035;-49
2021/06/03 04:04:01;;;;;;;4.70;2.65;;;;;;;25.53;20.02;100622.97;4970856;28;20122;-50
2021/06/03 04:06:27;;;;;;;3.92;2.22;;;;;;;25.95;19.57;100614.72;4970137;28;20134;-51
2021/06/03 04:08:52;;;;;;;4.95;2.28;;;;;;;26.07;18.55;100598.50;4970708;28;20039;-47
2021/06/03 04:11:19;;;;;;;6.63;3.25;;;;;;;26.28;18.83;100613.09;4971027;28;20093;-49
2021/06/03 04:13:46;;;;;;;7.90;2.67;;;;;;;26.85;18.44;100626.47;4970250;28;20454;-50
2021/06/03 04:16:11;;;;;;;5.65;2.60;;;;;;;27.39;17.37;100610.75;4968658;28;20406;-53
2021/06/03 04:18:37;;;;;;;3.45;2.55;;;;;;;28.36;16.84;100633.78;4970891;28;20046;-50
2021/06/03 04:21:04;;;;;;;4.75;2.97;;;;;;;28.90;16.32;100633.38;4970858;28;20049;-53
2021/06/03 04:23:30;;;;;;;7.70;2.92;;;;;;;29.28;15.88;100637.03;4969094;28;20038;-46
2021/06/03 04:25:55;;;;;;;5.05;2.65;;;;;;;29.74;15.19;100630.16;4969855;28;20039;-50
2021/06/03 04:28:21;;;;;;;5.10;2.60;;;;;;;30.22;14.80;100624.84;4969045;28;20391;-52
2021/06/03 04:30:46;;;;;;;6.05;2.40;;;;;;;30.65;14.57;100636.78;4969533;28;20073;-53
2021/06/03 04:33:15;;;;;;;8.52;2.55;;;;;;;30.83;14.21;100634.97;4970343;28;20036;-49
2021/06/03 04:35:41;;;;;;;2.90;2.50;;;;;;;31.24;13.64;100616.59;4970601;28;20097;-53
2021/06/03 04:38:06;;;;;;;4.20;2.60;;;;;;;32.01;13.48;100635.88;4970421;28;20074;-49
2021/06/03 04:40:33;;;;;;;5.50;2.70;;;;;;;32.62;12.68;100643.66;4970783;28;20049;-51
2021/06/03 04:42:59;;;;;;;5.90;2.50;;;;;;;33.01;12.39;100637.34;4965572;28;20034;-48
2021/06/03 04:45:26;;;;;;;5.70;2.67;;;;;;;33.04;12.04;100640.47;4968269;28;20046;-47
2021/06/03 04:47:52;;;;;;;4.15;2.50;;;;;;;33.31;11.63;100650.84;4967825;28;20039;-51
2021/06/03 04:50:20;;;;;;;2.67;1.83;;;;;;;33.75;11.08;100622.25;4968528;28;20121;-52
2021/06/03 04:52:46;;;;;;;5.57;2.53;;;;;;;34.55;10.61;100651.44;4968848;28;20042;-48
2021/06/03 04:55:19;;;;;;;5.90;1.90;;;;;;;35.09;10.39;100657.16;4970761;28;20053;-50
2021/06/03 04:57:45;;;;;;;8.30;2.38;;;;;;;35.15;10.32;100664.41;4971563;28;20488;-50
2021/06/03 05:00:17;;;;;;;3.45;1.73;;;;;;;34.99;9.64;100650.41;4969163;28;20120;-52
2021/06/03 05:02:44;;;;;;;3.40;1.90;;;;;;;35.37;9.64;100655.06;4973547;28;20070;-52
2021/06/03 05:05:10;;;;;;;5.93;2.33;;;;;;;35.09;9.40;100644.09;4973772;28;20383;-49
2021/06/03 05:07:36;;;;;;;4.72;2.20;;;;;;;35.21;9.71;100646.66;4973178;28;20039;-55
2021/06/03 05:10:03;;;;;;;6.75;2.40;;;;;;;36.20;9.40;100645.94;4972859;28;20093;-49
2021/06/03 05:12:29;;;;;;;4.72;2.00;;;;;;;36.98;8.60;100642.31;4973089;28;20035;-51
2021/06/03 05:14:54;;;;;;;5.63;2.30;;;;;;;37.58;8.33;100606.13;4972991;28;20513;-48
2021/06/03 05:17:21;;;;;;;8.32;2.17;;;;;;;38.36;7.84;100647.63;4973198;28;20132;-49
2021/06/03 05:19:46;;;;;;;2.35;1.80;;;;;;;38.81;7.13;100635.47;4972238;28;20031;-49
2021/06/03 05:22:12;;;;;;;5.45;1.90;;;;;;;37.90;7.50;100637.53;4972607;28;20410;-46
2021/06/03 05:24:37;;;;;;;3.88;1.95;;;;;;;38.16;7.49;100638.25;4988225;28;20037;-50
2021/06/03 05:27:03;;;;;;;4.57;2.08;;;;;;;38.87;7.67;100637.13;4972654;28;20030;-52
2021/06/03 05:29:29;;;;;;;5.90;2.13;;;;;;;39.61;6.62;100634.06;4972460;28;20506;-53
2021/06/03 05:31:54;;;;;;;4.47;1.80;;;;;;;40.24;6.58;100642.41;4973299;28;20401;-50
2021/06/03 05:34:20;;;;;;;10.98;2.38;;;;;;;40.81;6.27;100641.50;4972725;28;20034;-48
2021/06/03 05:36:46;;;;;;;7.68;2.13;;;;;;;40.73;6.13;100614.16;4972687;28;20077;-49
2021/06/03 05:39:12;;;;;;;7.50;1.90;;;;;;;41.18;5.88;100638.84;4972724;28;20051;-51
2021/06/03 05:41:39;;;;;;;3.80;1.90;;;;;;;40.89;5.73;100541.69;4971092;28;20204;-48
2021/06/03 05:44:06;;;;;;;6.32;2.08;;;;;;;41.20;5.48;100632.94;4970503;28;21039;-49
2021/06/03 05:46:31;;;;;;;6.50;2.00;;;;;;;40.80;5.59;100577.25;4972609;28;20027;-54
2021/06/03 05:48:59;;;;;;;3.38;1.67;;;;;;;40.94;5.65;100620.19;4973129;28;20059;-54
2021/06/03 05:51:24;;;;;;;4.03;1.63;;;;;;;41.47;5.19;100634.88;4972224;28;20513;-54
2021/06/03 05:53:50;;;;;;;10.48;1.85;;;;;;;41.46;5.16;100624.78;4972636;28;20034;-54
2021/06/03 05:56:15;;;;;;;3.05;1.77;;;;;;;41.77;4.60;100624.16;4971975;28;20477;-53
2021/06/03 05:58:41;;;;;;;4.53;1.80;;;;;;;41.99;4.81;100628.16;4971963;28;20022;-48
2021/06/03 06:01:06;;;;;;;4.22;1.77;;;;;;;42.01;4.83;100648.34;4970848;28;20157;-52
2021/06/03 06:03:45;;;;;;;5.35;1.52;;;;;;;41.50;4.34;100637.09;4971492;28;20513;-52
2021/06/03 06:08:49;;;;;;;3.25;1.58;;;;;;;41.37;4.27;100643.53;4969251;28;20039;-52
2021/06/03 06:11:14;;;;;;;7.72;1.73;;;;;;;41.93;4.49;100638.69;4971801;28;20038;-57
2021/06/03 06:13:40;;;;;;;4.55;2.38;;;;;;;42.70;3.86;100630.34;4970854;28;20046;-49
2021/06/03 06:16:06;;;;;;;4.30;1.65;;;;;;;42.36;3.74;100639.38;4971565;28;20113;-47
2021/06/03 06:18:31;;;;;;;8.18;1.90;;;;;;;41.37;4.27;100632.28;4969456;28;20030;-50
2021/06/03 06:20:57;;;;;;;4.82;1.63;;;;;;;41.22;4.30;100633.47;4970338;28;20039;-49
2021/06/03 06:23:22;;;;;;;4.55;1.77;;;;;;;41.42;4.49;100643.41;4970344;28;20506;-48
2021/06/03 06:25:48;;;;;;;4.22;1.58;;;;;;;42.30;4.26;100630.22;4970928;28;20501;-49
2021/06/03 06:28:15;;;;;;;5.85;1.70;;;;;;;43.02;3.73;100627.53;4970727;28;20143;-54
2021/06/03 06:30:42;;;;;;;4.68;2.00;;;;;;;44.14;3.29;100641.41;4971466;28;20038;-53
2021/06/03 06:33:08;;;;;;;5.47;1.98;;;;;;;43.34;2.90;100635.94;4971474;28;20058;-53
2021/06/03 06:35:34;;;;;;;2.92;1.65;;;;;;;42.19;3.41;100640.91;4971950;28;20394;-48
2021/06/03 06:38:01;;;;;;;6.20;1.70;;;;;;;41.19;4.02;100637.72;4972251;28;20534;-51
2021/06/03 06:40:27;;;;;;;4.03;1.92;;;;;;;41.55;4.10;100568.66;4971461;28;20064;-52
2021/06/03 06:42:54;;;;;;;7.97;1.98;;;;;;;42.29;3.82;100640.63;4971518;28;20121;-54
2021/06/03 06:45:23;;;;;;;7.95;2.15;;;;;;;41.95;3.41;100641.16;4971338;28;20435;-53
2021/06/03 06:47:49;;;;;;;5.63;1.92;;;;;;;41.37;3.65;100627.53;4971713;28;20613;-58
2021/06/03 06:50:15;;;;;;;6.93;1.73;;;;;;;41.29;3.79;100637.50;4971240;28;20644;-54
2021/06/03 06:52:41;;;;;;;3.33;1.50;;;;;;;40.81;3.91;100644.31;4969792;28;20043;-52
2021/06/03 06:55:08;;;;;;;3.03;1.40;;;;;;;39.94;4.11;100641.78;4971198;28;20389;-49
2021/06/03 06:57:34;;;;;;;4.07;1.60;;;;;;;39.30;4.53;100626.00;4971212;28;20090;-51
2021/06/03 07:00:00;;;;;;;8.32;1.63;;;;;;;39.18;4.57;100636.81;4969116;28;20049;-55
2021/06/03 07:02:26;;;;;;;4.97;2.13;;;;;;;40.37;4.16;100645.59;4970691;28;20039;-51
2021/06/03 07:04:51;;;;;;;4.43;1.63;;;;;;;39.83;4.40;100621.47;4967158;28;20472;-54
2021/06/03 07:07:17;;;;;;;4.53;1.60;;;;;;;40.86;3.80;100629.34;4969402;28;20039;-59
2021/06/03 07:09:43;;;;;;;2.83;1.80;;;;;;;41.95;3.55;100638.34;4971620;28;20038;-53
2021/06/03 07:12:09;;;;;;;6.95;1.80;;;;;;;43.08;3.32;100640.31;4965692;28;20418;-54
2021/06/03 07:14:35;;;;;;;2.50;1.90;;;;;;;44.29;2.60;100637.25;4970788;28;20070;-53
2021/06/03 07:17:01;;;;;;;2.97;1.75;;;;;;;45.02;2.57;100627.09;4969284;28;20075;-52
2021/06/03 07:19:26;;;;;;;4.88;1.92;;;;;;;44.93;2.29;100646.09;4969973;28;20064;-51
2021/06/03 07:21:52;;;;;;;3.78;1.83;;;;;;;45.50;2.46;100632.66;4969647;28;20039;-52
2021/06/03 07:24:18;;;;;;;3.22;1.98;;;;;;;45.92;2.19;100623.41;4969373;28;20058;-59
2021/06/03 07:26:44;;;;;;;7.25;2.28;;;;;;;46.64;1.99;100647.06;4969896;28;20063;-54
2021/06/03 07:29:09;;;;;;;4.93;1.75;;;;;;;47.39;1.61;100645.16;4970074;28;20042;-52
2021/06/03 07:31:35;;;;;;;4.75;2.10;;;;;;;47.78;1.84;100654.09;4969108;28;20066;-55
2021/06/03 07:34:05;;;;;;;5.05;1.58;;;;;;;47.31;0.89;100672.44;4969701;28;20453;-50
2021/06/03 07:36:34;;;;;;;10.20;2.00;;;;;;;46.25;1.56;100650.09;4966391;28;20043;-47
2021/06/03 07:39:02;;;;;;;3.40;2.10;;;;;;;46.92;1.25;100657.78;4968849;28;20387;-53
2021/06/03 07:41:28;;;;;;;5.57;1.98;;;;;;;47.49;1.10;100653.16;4970644;28;20050;-53
2021/06/03 07:43:54;;;;;;;5.90;1.75;;;;;;;48.21;0.73;100643.19;4969256;28;20041;-54
2021/06/03 07:46:19;;;;;;;6.05;1.83;;;;;;;48.12;1.11;100640.50;4969208;28;20088;-55
2021/06/03 07:48:45;;;;;;;8.07;2.33;;;;;;;48.41;0.74;100643.34;4968992;28;20094;-52
2021/06/03 07:51:11;;;;;;;5.70;2.00;;;;;;;48.94;0.42;100630.94;4970231;28;20078;-51
2021/06/03 07:53:38;;;;;;;3.90;1.88;;;;;;;49.36;0.83;100643.72;4968157;28;20050;-55
2021/06/03 07:56:04;;;;;;;6.45;2.10;;;;;;;49.08;0.07;100634.16;4968722;28;20467;-52
2021/06/03 07:58:30;;;;;;;3.42;2.08;;;;;;;49.22;0.54;100647.91;4967752;28;20084;-51
2021/06/03 08:00:56;;;;;;;6.28;1.80;;;;;;;48.62;0.32;100639.44;4970586;28;20034;-54
2021/06/03 08:03:22;;;;;;;6.63;1.90;;;;;;;47.47;0.11;100638.50;4970941;28;20039;-55
2021/06/03 08:05:47;;;;;;;3.67;1.88;;;;;;;45.57;0.78;100644.25;4966734;28;20039;-53
2021/06/03 08:08:13;;;;;;;3.60;2.00;;;;;;;43.13;1.87;100633.69;4969067;28;20035;-53
2021/06/03 08:10:41;;;;;;;5.97;1.85;;;;;;;42.24;2.31;100646.41;4969873;28;20088;-51
2021/06/03 08:13:10;;;;;;;3.88;1.75;;;;;;;41.12;3.11;100637.28;4969907;28;20121;-52
2021/06/03 08:15:40;;;;;;;6.07;2.05;;;;;;;40.92;3.34;100632.91;4968944;28;20034;-53
2021/06/03 08:18:06;;;;;;;4.38;1.52;;;;;;;39.27;3.69;100651.00;4970023;28;20031;-46
2021/06/03 08:20:38;;;;;;;6.00;2.13;;;;;;;37.12;4.87;100650.97;4970294;28;20041;-49
2021/06/03 08:23:06;;;;;;;5.70;1.77;;;;;;;35.08;6.01;100652.69;4969889;28;20042;-50
2021/06/03 08:25:32;;;;;;;9.77;1.88;;;;;;;32.93;7.09;100633.06;4969712;28;20101;-50
2021/06/03 08:27:59;;;;;;;7.80;1.60;;;;;;;30.55;8.62;100623.50;4997678;28;20039;-49
2021/06/03 08:30:25;;;;;;;6.63;1.50;;;;;;;29.02;9.77;100653.63;4972162;28;20046;-49
2021/06/03 08:32:51;;;;;;;4.93;1.48;;;;;;;27.54;10.91;100651.75;4972984;28;20061;-51
2021/06/03 08:35:19;;;;;;;4.53;1.95;;;;;;;26.47;11.70;100634.25;4978217;28;20105;-48
2021/06/03 08:37:46;;;;;;;5.85;1.55;;;;;;;26.07;12.15;100661.59;4973045;28;20082;-46
2021/06/03 08:40:14;;;;;;;3.45;1.25;;;;;;;25.37;12.12;100654.28;4971408;28;20031;-47
2021/06/03 08:42:40;;;;;;;5.00;1.63;;;;;;;24.92;13.06;100658.19;4972621;28;20043;-47
2021/06/03 08:45:07;;;;;;;8.90;1.80;;;;;;;24.35;13.55;100629.84;4972565;28;20030;-46
2021/06/03 08:47:33;;;;;;;2.28;1.45;;;;;;;23.94;14.29;100644.97;4985198;28;20026;-49
2021/06/03 08:50:03;;;;;;;3.00;1.38;;;;;;;23.86;14.15;100659.59;4981660;28;20066;-50
2021/06/03 08:52:29;;;;;;;6.38;1.63;;;;;;;23.54;14.65;100653.50;4958128;28;20047;-51
2021/06/03 08:54:55;;;;;;;7.43;1.65;;;;;;;22.91;14.88;100596.47;4970552;28;20042;-53
2021/06/03 08:57:22;;;;;;;5.70;1.65;;;;;;;22.45;14.78;100581.84;4972904;28;20031;-56
2021/06/03 08:59:48;;;;;;;4.82;1.77;;;;;;;22.47;14.92;100562.59;4970235;28;20039;-49
2021/06/03 09:02:14;;;;;;;4.78;1.52;;;;;;;22.71;14.92;100639.81;4971463;28;20046;-47
2021/06/03 09:04:40;;;;;;;9.15;1.77;;;;;;;22.43;15.83;100633.03;4973043;28;20038;-52
2021/06/03 09:07:27;;;;;;;9.43;1.80;;;;;;;22.60;15.64;100649.28;4972613;28;20406;-53
2021/06/03 09:09:54;;;;;;;7.53;2.20;;;;;;;22.64;15.65;100636.97;4972708;28;20046;-51
2021/06/03 09:12:34;;;;;;;8.40;2.92;;;;;;;22.68;15.84;100635.59;4972786;28;20042;-52
2021/06/03 09:15:16;;;;;;;10.50;3.10;;;;;;;22.71;16.17;100634.34;4973043;28;20039;-52
2021/06/03 09:17:48;;;;;;;7.43;4.00;;;;;;;22.66;16.14;100648.53;4972639;28;20215;-52
2021/06/03 09:20:13;;;;;;;6.65;3.10;;;;;;;22.70;15.58;100624.47;4972291;28;20043;-51
2021/06/03 09:22:42;;;;;;;9.60;3.25;;;;;;;22.66;15.64;100634.91;4972863;28;20086;-54
2021/06/03 09:25:41;;;;;;;10.35;2.92;;;;;;;22.03;16.40;100536.84;4971533;28;20492;-52
2021/06/03 09:28:31;;;;;;;6.68;2.25;;;;;;;22.64;15.99;100623.31;4947698;28;20125;-52
2021/06/03 09:31:06;;;;;;;6.63;2.03;;;;;;;22.43;15.63;100616.66;4973002;28;20194;-54
2021/06/03 09:33:49;;;;;;;8.48;2.17;;;;;;;22.31;15.98;100623.56;4971681;28;20038;-54
2021/06/03 09:36:25;;;;;;;3.75;1.95;;;;;;;22.14;16.82;100604.56;4972495;28;20038;-48
2021/06/03 09:38:56;;;;;;;;;;;;;;;22.48;16.11;100611.53;4973118;28;20046;-48
2021/06/03 09:41:24;;;;;;;3.85;1.60;;;;;;;22.05;16.39;100556.59;4972449;28;19925;-49
2021/06/03 09:44:01;;;;;;;6.03;1.90;;;;;;;22.39;16.62;100612.59;4972041;28;20042;-54
2021/06/03 09:46:26;;;;;;;7.65;1.60;;;;;;;22.35;17.10;100603.94;4972727;28;20046;-51
2021/06/03 09:48:52;;;;;;;3.25;1.50;;;;;;;22.43;17.15;100592.13;4972733;28;20522;-50
2021/06/03 09:51:24;;;;;;;3.53;1.55;;;;;;;22.68;16.46;100608.31;4972412;28;20046;-48
2021/06/03 09:53:53;;;;;;;6.95;1.75;;;;;;;22.55;16.79;100602.59;4972580;28;20039;-48
2021/06/03 09:56:30;;;;;;;7.57;1.80;;;;;;;22.49;16.59;100596.84;4953166;28;20170;-50
2021/06/03 09:58:57;;;;;;;2.88;1.42;;;;;;;22.44;17.01;100599.25;4953208;28;20039;-55
2021/06/03 10:01:37;;;;;;;6.15;1.67;;;;;;;22.50;17.02;100576.72;4952544;28;20034;-51
2021/06/03 10:04:04;;;;;;;14.75;2.00;;;;;;;22.45;17.11;100591.91;4952712;28;20450;-55
2021/06/03 10:06:29;;;;;;;3.83;1.20;;;;;;;22.61;16.71;100604.59;4968980;28;20031;-54
2021/06/03 10:08:56;;;;;;;3.03;1.50;;;;;;;22.54;16.87;100581.81;4971586;28;20045;-58
2021/06/03 10:11:44;;;;;;;4.22;1.60;;;;;;;22.40;17.34;100599.81;4972424;28;20270;-54
2021/06/03 10:14:17;;;;;;;8.07;1.90;;;;;;;22.41;17.03;100596.88;4971794;28;20065;-51
2021/06/03 10:16:43;;;;;;;5.05;1.65;;;;;;;22.20;16.93;100573.00;4971705;28;20036;-53
2021/06/03 10:19:27;;;;;;;3.90;2.08;;;;;;;22.12;17.39;100582.09;4971119;28;20130;-55
2021/06/03 10:22:43;;;;;;;2.72;1.52;;;;;;;22.18;17.87;100578.63;4971266;28;20073;-48
2021/06/03 10:25:17;;;;;;;5.93;1.73;;;;;;;22.22;17.54;100571.81;4949623;28;20124;-52
2021/06/03 10:27:55;;;;;;;4.07;1.50;;;;;;;22.34;17.20;100568.63;4971509;28;20624;-49
2021/06/03 10:30:34;;;;;;;7.80;1.90;;;;;;;22.41;17.44;100550.50;4971221;28;20035;-49
2021/06/03 10:33:25;;;;;;;7.72;1.60;;;;;;;22.51;17.68;100570.22;4971321;28;20042;-55
2021/06/03 10:35:57;;;;;;;5.38;1.83;;;;;;;22.52;17.13;100560.16;4971826;28;20030;-52
2021/06/03 10:38:23;;;;;;;10.90;2.20;;;;;;;22.50;17.09;100563.09;4971765;28;20039;-49
2021/06/03 10:40:55;;;;;;;4.25;1.50;;;;;;;22.07;18.11;100543.63;4970985;28;20049;-52
2021/06/03 10:43:21;;;;;;;5.90;1.60;;;;;;;22.24;17.78;100549.78;4971131;28;20069;-51
2021/06/03 10:45:47;;;;;;;4.95;1.80;;;;;;;21.84;17.86;100487.22;4971690;28;20462;-51
2021/06/03 10:48:13;;;;;;;7.93;1.95;;;;;;;22.08;18.83;100550.78;4970594;28;20066;-53
2021/06/03 10:50:42;;;;;;;8.88;2.03;;;;;;;21.89;19.10;100542.03;4969057;28;20054;-51
2021/06/03 10:53:16;;;;;;;10.70;1.70;;;;;;;22.04;19.22;100557.63;4971067;28;20081;-51
2021/06/03 10:55:45;;;;;;;6.22;1.50;;;;;;;22.13;19.08;100540.16;4969328;28;20145;-47
2021/06/03 10:58:13;;;;;;;3.38;1.60;;;;;;;22.37;18.67;100551.91;4970751;28;20081;-51
2021/06/03 11:00:45;;;;;;;4.15;1.50;;;;;;;22.46;18.43;100564.50;4968269;28;20039;-53
2021/06/03 11:03:18;;;;;;;4.40;1.42;;;;;;;22.58;18.73;100550.38;4968000;28;20117;-50
2021/06/03 11:05:47;;;;;;;6.00;1.65;;;;;;;22.59;19.01;100542.03;4968667;28;20130;-52
2021/06/03 11:08:33;;;;;;;4.22;1.40;;;;;;;22.59;19.26;100539.28;4968676;28;20034;-48
2021/06/03 11:11:17;;;;;;;4.70;1.52;;;;;;;22.46;19.56;100545.38;4965981;28;20049;-54
2021/06/03 11:13:45;;;;;;;2.72;1.30;;;;;;;22.61;18.29;100544.56;4964330;28;20034;-50
2021/06/03 11:16:19;;;;;;;6.93;1.58;;;;;;;22.58;18.27;100547.66;4970255;28;20038;-51
2021/06/03 11:18:44;;;;;;;4.07;1.40;;;;;;;22.21;19.20;100531.94;4970074;28;20038;-52
2021/06/03 11:21:37;;;;;;;7.28;1.73;;;;;;;22.39;18.92;100544.38;4969988;28;20038;-55
2021/06/03 11:24:14;;;;;;;7.15;1.73;;;;;;;22.34;19.27;100531.31;4969667;28;20070;-50
2021/06/03 11:26:40;;;;;;;6.20;1.50;;;;;;;21.96;19.75;100534.00;4970590;28;20042;-51
2021/06/03 11:29:28;;;;;;;7.15;1.70;;;;;;;21.86;19.84;100530.66;4969805;28;20026;-49
2021/06/03 11:32:06;;;;;;;4.72;1.75;;;;;;;21.59;20.33;100532.84;4975221;28;20046;-50
2021/06/03 11:34:42;;;;;;;5.53;1.75;;;;;;;21.58;20.47;100529.28;4969897;28;20156;-53